Emine Anne — TCBX9 — position and weather

sailwx.info

Track history (hours):
 
Tides and Currents Weather Stations Pressure Air Temp Water Temp Dewpoint Dewpoint Depression Visibility Wind Speed Wind Dir Waves Ship Positions

Emine Anne

Last reported at 2014-Aug-24 23:30 UTC. Time now 2014-Sep-01 14:09 UTC.
Position N 40°57' E 028°58'.

Length 69 m; draft 3.4 m.

Type: Ship. MMSI: 271002305.

Date/timePositionNaut miles runAvg speedWind from/ knotsBaromVisibWave heightAir tempDewpointWater temp
2014-Aug-24 23:30N 40°57' E 028°58'3 0.4
2014-Aug-24 15:28N 40°59' E 028°55'0 0.0
2014-Aug-24 14:33N 40°59' E 028°55'0 0.0
2014-Aug-24 13:33N 40°59' E 028°55'0 0.1
2014-Aug-24 12:33N 40°59' E 028°55'0 0.0
2014-Aug-24 11:33N 40°59' E 028°55'0 0.0
2014-Aug-24 10:33N 40°59' E 028°55'0 0.1
2014-Aug-24 09:33N 40°59' E 028°55'5 5.4
2014-Aug-24 08:33N 40°53' E 028°54'135 4.6
2014-Aug-23 03:18N 40°01' E 026°11'133 2.6
2014-Aug-21 00:08N 40°55' E 028°51'4 0.4
2014-Aug-20 13:28N 40°58' E 028°54'  
2014-Aug-17 14:34N 40°58' E 028°58'66 3.2
2014-Aug-16 18:14N 42°04' E 029°02'9 8.4
2014-Aug-16 17:13N 42°13' E 029°02'6 8.4
2014-Aug-16 16:34N 42°18' E 029°02'17 8.3
2014-Aug-16 14:32N 42°35' E 029°03'  
Track history (hours):
 
Tides and Currents Weather Stations Pressure Air Temp Water Temp Dewpoint Dewpoint Depression Visibility Wind Speed Wind Dir Waves Ship Positions

Emine Anne

Last reported at 2014-Aug-24 23:30 UTC. Time now 2014-Sep-01 14:09 UTC.
Position N 40°57' E 028°58'.

Length 69 m; draft 3.4 m.

Type: Ship. MMSI: 271002305.

Date/timePositionNaut miles runAvg speedWind from/ knotsBaromVisibWave heightAir tempDewpointWater temp
2014-Aug-24 23:30N 40°57' E 028°58'3 0.4
2014-Aug-24 15:28N 40°59' E 028°55'0 0.0
2014-Aug-24 14:33N 40°59' E 028°55'0 0.0
2014-Aug-24 13:33N 40°59' E 028°55'0 0.1
2014-Aug-24 12:33N 40°59' E 028°55'0 0.0
2014-Aug-24 11:33N 40°59' E 028°55'0 0.0
2014-Aug-24 10:33N 40°59' E 028°55'0 0.1
2014-Aug-24 09:33N 40°59' E 028°55'5 5.4
2014-Aug-24 08:33N 40°53' E 028°54'135 4.6
2014-Aug-23 03:18N 40°01' E 026°11'133 2.6
2014-Aug-21 00:08N 40°55' E 028°51'4 0.4
2014-Aug-20 13:28N 40°58' E 028°54'  
2014-Aug-17 14:34N 40°58' E 028°58'66 3.2
2014-Aug-16 18:14N 42°04' E 029°02'9 8.4
2014-Aug-16 17:13N 42°13' E 029°02'6 8.4
2014-Aug-16 16:34N 42°18' E 029°02'17 8.3
2014-Aug-16 14:32N 42°35' E 029°03'  

Dump ship's entire track history